Time;durP1;ratioP1;P1;durP2;ratioP2;P2;SDS_P1;SDS_P2;PMS_P1;PMS_P2;Temp;Humidity;BMP_temperature;BMP_pressure;BME280_temperature;BME280_humidity;BME280_pressure;Samples;Min_cycle;Max_cycle;Signal;HPM_P1;HPM_P2
2023/10/21 00:02:04;;;;;;;44.35;23.40;;;10.20;99.90;;;;;;5076111;28;20471;-83
2023/10/21 00:04:31;;;;;;;55.55;24.27;;;10.20;99.90;;;;;;5053881;28;20056;-83
2023/10/21 00:07:00;;;;;;;69.95;26.15;;;10.80;99.90;;;;;;5079242;28;20086;-83
2023/10/21 00:09:25;;;;;;;47.63;23.73;;;11.50;99.90;;;;;;5061914;28;20039;-83
2023/10/21 00:11:51;;;;;;;53.90;22.92;;;10.40;99.90;;;;;;5035219;28;20051;-82
2023/10/21 00:14:19;;;;;;;62.88;23.77;;;10.30;99.90;;;;;;5037962;28;20412;-82
2023/10/21 00:16:45;;;;;;;46.58;20.70;;;11.20;99.90;;;;;;5040958;28;20123;-82
2023/10/21 00:19:11;;;;;;;46.65;20.13;;;10.40;99.90;;;;;;5056992;28;20041;-82
2023/10/21 00:21:38;;;;;;;43.08;20.85;;;10.60;99.90;;;;;;5059476;28;20062;-84
2023/10/21 00:24:04;;;;;;;53.00;22.77;;;10.80;99.90;;;;;;5057052;28;20044;-83
2023/10/21 00:26:30;;;;;;;51.58;22.52;;;10.40;99.90;;;;;;5042566;28;20039;-84
2023/10/21 00:28:55;;;;;;;43.17;19.77;;;10.50;99.90;;;;;;5059502;28;20054;-83
2023/10/21 00:31:21;;;;;;;39.15;19.48;;;10.50;99.90;;;;;;5059181;28;20119;-82
2023/10/21 00:33:47;;;;;;;34.63;18.25;;;10.40;99.90;;;;;;5034725;28;20036;-84
2023/10/21 00:36:12;;;;;;;40.67;18.60;;;10.60;99.90;;;;;;5054407;28;20355;-83
2023/10/21 00:38:38;;;;;;;39.25;19.48;;;10.60;99.90;;;;;;5038764;28;20110;-82
2023/10/21 00:41:04;;;;;;;38.22;18.33;;;10.60;99.90;;;;;;5041949;28;20049;-82
2023/10/21 00:43:40;;;;;;;39.30;18.40;;;10.70;99.90;;;;;;5038443;28;20045;-86
2023/10/21 00:46:15;;;;;;;42.58;18.42;;;10.70;99.90;;;;;;5030915;28;20613;-84
2023/10/21 00:48:41;;;;;;;41.63;17.63;;;12.40;99.90;;;;;;5039833;28;20199;-83
2023/10/21 00:51:09;;;;;;;36.42;16.70;;;10.80;99.90;;;;;;5056564;28;20433;-82
2023/10/21 00:53:38;;;;;;;48.15;19.23;;;12.10;99.90;;;;;;5056828;28;20041;-82
2023/10/21 00:56:07;;;;;;;33.45;15.48;;;10.80;99.90;;;;;;5059803;28;20072;-83
2023/10/21 00:58:33;;;;;;;35.53;15.73;;;11.60;99.90;;;;;;5058094;28;20148;-84
2023/10/21 01:01:06;;;;;;;30.45;14.95;;;12.50;99.90;;;;;;5055435;28;20033;-82
2023/10/21 01:03:33;;;;;;;34.58;16.30;;;10.80;99.90;;;;;;5055365;28;20045;-85
2023/10/21 01:05:58;;;;;;;40.08;16.15;;;10.90;99.90;;;;;;5040225;28;20125;-83
2023/10/21 01:08:24;;;;;;;27.08;15.05;;;11.50;99.90;;;;;;5035132;28;20072;-83
2023/10/21 01:10:50;;;;;;;28.55;14.75;;;11.00;99.90;;;;;;5055175;28;20139;-83
2023/10/21 01:13:16;;;;;;;31.73;16.10;;;12.40;99.90;;;;;;5040474;28;20040;-83
2023/10/21 01:15:42;;;;;;;33.03;14.90;;;10.80;99.90;;;;;;5052228;28;20463;-84
2023/10/21 01:18:08;;;;;;;31.15;15.55;;;10.80;99.90;;;;;;5057028;28;20070;-82
2023/10/21 01:20:40;;;;;;;36.50;16.35;;;12.30;99.90;;;;;;5043144;28;20135;-87
2023/10/21 01:23:12;;;;;;;30.08;14.73;;;10.90;99.90;;;;;;5042503;28;20573;-83
2023/10/21 01:25:38;;;;;;;52.97;19.90;;;10.90;99.90;;;;;;5055015;28;20131;-83
2023/10/21 01:28:04;;;;;;;40.50;17.20;;;11.10;99.90;;;;;;5037149;28;20480;-83
2023/10/21 01:30:29;;;;;;;40.05;17.80;;;10.80;99.90;;;;;;5038518;28;20055;-83
2023/10/21 01:32:55;;;;;;;57.83;20.17;;;10.80;99.90;;;;;;5049080;28;20043;-84
2023/10/21 01:35:21;;;;;;;32.47;15.30;;;12.30;99.90;;;;;;5056986;28;20487;-83
2023/10/21 01:37:47;;;;;;;30.30;15.07;;;12.20;99.90;;;;;;5056905;28;20118;-82
2023/10/21 01:40:13;;;;;;;46.83;16.85;;;10.90;99.90;;;;;;5043389;28;20079;-82
2023/10/21 01:42:42;;;;;;;41.90;16.65;;;11.90;99.90;;;;;;5044285;28;20048;-83
2023/10/21 01:45:09;;;;;;;28.33;15.32;;;10.60;99.90;;;;;;5034798;28;20045;-85
2023/10/21 01:47:36;;;;;;;35.83;16.65;;;10.60;99.90;;;;;;5041006;28;20048;-85
2023/10/21 01:50:07;;;;;;;31.98;14.98;;;10.60;99.90;;;;;;5029378;28;20058;-88
2023/10/21 01:52:34;;;;;;;37.88;16.23;;;10.50;99.90;;;;;;5035698;28;20269;-87
2023/10/21 01:55:03;;;;;;;67.63;21.75;;;10.70;99.90;;;;;;5049774;28;20055;-82
2023/10/21 01:57:32;;;;;;;47.70;19.65;;;10.50;99.90;;;;;;5060242;28;20056;-84
2023/10/21 01:59:59;;;;;;;50.55;19.90;;;10.50;99.90;;;;;;5061237;28;20098;-86
2023/10/21 02:02:25;;;;;;;47.95;19.55;;;12.00;99.90;;;;;;5058592;28;20033;-83
2023/10/21 02:04:52;;;;;;;31.50;16.23;;;10.40;99.90;;;;;;5060427;28;20044;-82
2023/10/21 02:07:20;;;;;;;27.15;14.60;;;11.90;99.90;;;;;;5055040;28;20041;-84
2023/10/21 02:09:46;;;;;;;31.23;16.33;;;10.30;99.90;;;;;;5057216;28;20496;-81
2023/10/21 02:12:11;;;;;;;26.58;16.35;;;10.40;99.90;;;;;;5068710;28;20062;-82
2023/10/21 02:14:37;;;;;;;58.50;22.13;;;10.30;99.90;;;;;;5053878;28;20235;-83
2023/10/21 02:17:03;;;;;;;47.85;19.80;;;10.30;99.90;;;;;;5028708;28;20474;-82
2023/10/21 02:19:28;;;;;;;30.02;17.33;;;10.20;99.90;;;;;;5057179;28;20037;-82
2023/10/21 02:21:54;;;;;;;51.08;22.27;;;10.20;99.90;;;;;;5062418;28;20048;-84
2023/10/21 02:24:19;;;;;;;36.05;18.73;;;10.10;99.90;;;;;;5060806;28;20496;-83
2023/10/21 02:26:45;;;;;;;28.67;17.95;;;11.40;99.90;;;;;;5063076;28;20051;-81
2023/10/21 02:29:11;;;;;;;31.75;18.17;;;10.20;99.90;;;;;;5064387;28;20067;-83
2023/10/21 02:31:37;;;;;;;47.60;20.98;;;11.60;99.90;;;;;;5047793;28;20492;-85
2023/10/21 02:34:03;;;;;;;34.22;19.60;;;9.90;99.90;;;;;;5062381;28;20040;-84
2023/10/21 02:36:29;;;;;;;47.95;20.65;;;10.00;99.90;;;;;;5052283;28;20482;-82
2023/10/21 02:38:54;;;;;;;29.10;17.17;;;10.00;99.90;;;;;;5038106;28;20271;-84
2023/10/21 02:41:20;;;;;;;38.08;19.48;;;10.00;99.90;;;;;;5060729;28;20060;-82
2023/10/21 02:43:47;;;;;;;35.05;19.23;;;10.00;99.90;;;;;;5042357;28;20472;-83
2023/10/21 02:46:13;;;;;;;38.65;19.52;;;9.90;99.90;;;;;;5039474;28;20048;-82
2023/10/21 02:48:40;;;;;;;42.30;21.65;;;9.90;99.90;;;;;;5058207;28;20515;-82
2023/10/21 02:51:23;;;;;;;45.63;19.35;;;10.30;99.90;;;;;;5057267;28;20427;-85
2023/10/21 02:53:49;;;;;;;31.30;18.27;;;11.30;99.90;;;;;;5040527;28;20044;-84
2023/10/21 02:56:14;;;;;;;66.50;23.42;;;9.90;99.90;;;;;;5040950;28;20041;-84
2023/10/21 02:58:41;;;;;;;50.88;21.10;;;9.80;99.90;;;;;;5040985;28;20405;-83
2023/10/21 03:01:15;;;;;;;29.25;17.13;;;11.30;99.90;;;;;;5061004;28;20040;-84
2023/10/21 03:03:41;;;;;;;;;;;10.00;99.90;;;;;;5060163;28;20056;-86
2023/10/21 03:06:08;;;;;;;31.77;16.88;;;9.80;99.90;;;;;;5040500;28;19931;-86
2023/10/21 03:08:35;;;;;;;35.78;18.65;;;9.80;99.90;;;;;;5045750;28;20119;-83
2023/10/21 03:11:05;;;;;;;73.47;23.98;;;10.50;99.90;;;;;;5026545;28;20131;-86
2023/10/21 03:13:35;;;;;;;29.73;17.85;;;9.80;99.90;;;;;;5049936;28;20048;-81
2023/10/21 03:16:08;;;;;;;28.92;16.60;;;9.70;99.90;;;;;;5032133;28;20456;-84
2023/10/21 03:18:35;;;;;;;28.23;16.70;;;9.80;99.90;;;;;;5054839;28;21964;-83
2023/10/21 03:21:02;;;;;;;37.22;19.00;;;9.70;99.90;;;;;;5048562;28;20317;-83
2023/10/21 03:23:29;;;;;;;33.50;18.77;;;10.50;99.90;;;;;;5051471;28;20041;-82
2023/10/21 03:26:00;;;;;;;40.75;18.75;;;9.70;99.90;;;;;;5034029;28;20049;-82
2023/10/21 03:28:26;;;;;;;49.83;20.10;;;9.80;99.90;;;;;;5057093;28;20044;-83
2023/10/21 03:30:56;;;;;;;29.80;17.15;;;10.70;99.90;;;;;;5058861;28;20037;-83
2023/10/21 03:33:24;;;;;;;37.08;17.98;;;11.50;99.90;;;;;;5037168;28;20600;-85
2023/10/21 03:35:53;;;;;;;32.63;16.85;;;9.50;99.90;;;;;;5040240;28;20036;-85
2023/10/21 03:38:20;;;;;;;32.75;16.08;;;9.70;99.90;;;;;;5058657;28;20049;-82
2023/10/21 03:40:55;;;;;;;34.92;17.30;;;9.70;99.90;;;;;;5040608;28;20052;-82
2023/10/21 03:43:20;;;;;;;33.58;18.33;;;11.40;99.90;;;;;;5038129;28;20037;-82
2023/10/21 03:45:46;;;;;;;29.75;15.85;;;9.70;99.90;;;;;;5048322;28;20087;-82
2023/10/21 03:48:11;;;;;;;56.28;21.08;;;11.20;99.90;;;;;;5057469;28;20033;-83
2023/10/21 03:50:37;;;;;;;36.53;18.77;;;9.70;99.90;;;;;;5052721;28;20049;-84
2023/10/21 03:53:03;;;;;;;28.23;15.73;;;9.70;99.90;;;;;;5031134;28;20049;-82
2023/10/21 03:55:29;;;;;;;63.75;23.13;;;9.60;99.90;;;;;;5056621;28;20037;-85
2023/10/21 03:57:54;;;;;;;51.15;20.20;;;11.50;99.90;;;;;;5050994;28;20041;-83
2023/10/21 04:00:21;;;;;;;31.98;16.70;;;9.60;99.90;;;;;;5037560;28;20048;-82
2023/10/21 04:02:47;;;;;;;32.45;17.23;;;10.40;99.90;;;;;;5036176;28;20041;-84
2023/10/21 04:05:13;;;;;;;38.05;18.65;;;10.90;99.90;;;;;;5042656;28;20269;-86
2023/10/21 04:07:38;;;;;;;38.90;19.00;;;9.60;99.90;;;;;;5057194;28;20439;-86
2023/10/21 04:10:04;;;;;;;36.92;18.63;;;11.10;99.90;;;;;;5050769;28;20112;-85
2023/10/21 04:12:30;;;;;;;30.20;17.65;;;9.60;99.90;;;;;;5050238;28;20045;-85
2023/10/21 04:14:56;;;;;;;60.85;24.30;;;9.60;99.90;;;;;;5040954;28;20163;-82
2023/10/21 04:17:21;;;;;;;30.00;17.55;;;10.80;99.90;;;;;;5061541;28;20045;-85
2023/10/21 04:19:47;;;;;;;36.22;19.95;;;10.70;99.90;;;;;;5057408;28;20037;-86
2023/10/21 04:22:13;;;;;;;40.50;18.98;;;10.60;99.90;;;;;;5050619;28;20044;-82
2023/10/21 04:24:38;;;;;;;38.92;20.23;;;9.90;99.90;;;;;;5040260;28;20123;-84
2023/10/21 04:27:04;;;;;;;34.65;18.40;;;10.40;99.90;;;;;;5054110;28;20083;-82
2023/10/21 04:29:32;;;;;;;23.92;15.73;;;9.50;99.90;;;;;;5060481;28;20432;-84
2023/10/21 04:31:58;;;;;;;28.40;17.15;;;9.50;99.90;;;;;;5039899;28;20048;-83
2023/10/21 04:34:25;;;;;;;41.50;20.30;;;11.00;99.90;;;;;;5059908;28;20033;-83
2023/10/21 04:36:50;;;;;;;35.92;18.90;;;10.80;99.90;;;;;;5054928;28;20048;-84
2023/10/21 04:39:16;;;;;;;29.55;17.85;;;9.40;99.90;;;;;;5042307;28;20125;-82
2023/10/21 04:41:42;;;;;;;30.92;18.67;;;9.50;99.90;;;;;;5056397;28;20041;-82
2023/10/21 04:44:09;;;;;;;26.00;17.05;;;9.50;99.90;;;;;;5033928;28;20095;-83
2023/10/21 04:46:35;;;;;;;49.17;20.88;;;9.50;99.90;;;;;;5034140;28;20048;-83
2023/10/21 04:49:01;;;;;;;33.22;17.27;;;10.60;99.90;;;;;;5055350;28;20472;-82
2023/10/21 04:51:26;;;;;;;42.10;19.55;;;9.80;99.90;;;;;;5042242;28;20123;-83
2023/10/21 04:53:52;;;;;;;27.48;17.23;;;11.20;99.90;;;;;;5039389;28;20489;-83
2023/10/21 04:56:17;;;;;;;44.55;20.88;;;9.40;99.90;;;;;;5054990;28;20072;-85
2023/10/21 04:58:43;;;;;;;26.63;15.95;;;9.40;99.90;;;;;;5055717;28;20041;-85
2023/10/21 05:01:10;;;;;;;31.63;17.73;;;9.50;99.90;;;;;;5059102;28;20051;-85
2023/10/21 05:03:36;;;;;;;24.77;15.93;;;9.60;99.90;;;;;;5041434;28;20082;-85
2023/10/21 05:06:04;;;;;;;30.08;16.33;;;9.40;99.90;;;;;;5055171;28;20301;-84
2023/10/21 05:08:31;;;;;;;24.42;16.85;;;9.40;99.90;;;;;;5052272;28;20124;-83
2023/10/21 05:10:57;;;;;;;26.33;16.63;;;10.90;99.90;;;;;;5056398;28;20055;-82
2023/10/21 05:13:23;;;;;;;27.70;17.00;;;9.70;99.90;;;;;;5038138;28;20033;-83
2023/10/21 05:15:50;;;;;;;39.33;18.65;;;9.50;99.90;;;;;;5037368;28;20048;-84
2023/10/21 05:18:16;;;;;;;26.50;15.02;;;9.70;99.90;;;;;;5033834;28;20037;-81
2023/10/21 05:20:42;;;;;;;25.17;15.88;;;11.00;99.90;;;;;;5054337;28;20479;-82
2023/10/21 05:23:08;;;;;;;41.80;19.20;;;9.40;99.90;;;;;;5057825;28;20037;-85
2023/10/21 05:25:34;;;;;;;27.15;16.05;;;9.40;99.90;;;;;;5024031;28;20044;-83
2023/10/21 05:28:00;;;;;;;24.55;15.40;;;10.80;99.90;;;;;;5031154;28;20094;-86
2023/10/21 05:30:25;;;;;;;25.98;16.23;;;9.30;99.90;;;;;;5041281;28;20036;-82
2023/10/21 05:32:51;;;;;;;43.08;18.58;;;9.40;99.90;;;;;;5041244;28;20064;-84
2023/10/21 05:35:17;;;;;;;30.85;16.42;;;9.40;99.90;;;;;;5050327;28;20357;-83
2023/10/21 05:37:43;;;;;;;28.05;16.90;;;9.40;99.90;;;;;;5033621;28;20408;-82
2023/10/21 05:40:09;;;;;;;25.92;15.23;;;10.50;99.90;;;;;;5061263;28;20040;-83
2023/10/21 05:42:35;;;;;;;25.88;15.65;;;9.40;99.90;;;;;;5030336;28;20047;-83
2023/10/21 05:45:01;;;;;;;25.27;15.48;;;10.50;99.90;;;;;;5046025;28;20136;-82
2023/10/21 05:47:26;;;;;;;33.60;17.02;;;9.40;99.90;;;;;;5026670;28;20154;-83
2023/10/21 05:49:53;;;;;;;26.13;14.43;;;10.80;99.90;;;;;;5054298;28;20385;-83
2023/10/21 05:52:19;;;;;;;21.20;14.43;;;9.40;99.90;;;;;;5047820;28;20043;-84
2023/10/21 05:54:46;;;;;;;37.05;17.33;;;9.40;99.90;;;;;;5081402;28;20658;-84
2023/10/21 05:57:12;;;;;;;25.35;14.90;;;9.50;99.90;;;;;;5036701;28;20051;-83
2023/10/21 05:59:40;;;;;;;145.85;107.55;;;10.20;99.90;;;;;;5044822;28;20261;-83
2023/10/21 06:02:08;;;;;;;170.55;125.90;;;9.50;99.90;;;;;;5027669;28;20463;-82
2023/10/21 06:04:34;;;;;;;41.78;27.23;;;9.50;99.90;;;;;;5039307;28;20045;-83
2023/10/21 06:07:01;;;;;;;47.13;21.10;;;10.50;99.90;;;;;;4693727;28;10000602;-86
2023/10/21 06:09:27;;;;;;;25.88;14.40;;;9.50;99.90;;;;;;5009783;28;20087;-82
2023/10/21 06:11:53;;;;;;;20.02;14.13;;;10.00;99.90;;;;;;5044348;28;20477;-83
2023/10/21 06:14:20;;;;;;;27.80;15.98;;;8.90;99.90;;;;;;5045194;28;20309;-83
2023/10/21 06:16:45;;;;;;;24.90;15.40;;;9.60;99.90;;;;;;5040821;28;20131;-77
2023/10/21 06:19:11;;;;;;;24.02;14.30;;;11.30;99.90;;;;;;5064241;28;20120;-83
2023/10/21 06:21:37;;;;;;;24.98;14.27;;;11.30;99.90;;;;;;5040974;28;20052;-82
2023/10/21 06:24:06;;;;;;;31.27;15.68;;;9.70;99.90;;;;;;5043888;28;20207;-79
2023/10/21 06:26:31;;;;;;;28.48;15.57;;;9.70;99.90;;;;;;5045681;28;20125;-80
2023/10/21 06:28:58;;;;;;;19.30;12.73;;;9.70;99.90;;;;;;5031778;28;20049;-84
2023/10/21 06:31:24;;;;;;;29.75;14.90;;;9.80;99.90;;;;;;5056686;28;20052;-83
2023/10/21 06:33:50;;;;;;;22.88;13.55;;;10.00;99.90;;;;;;5040509;28;20566;-82
2023/10/21 06:36:16;;;;;;;28.90;15.65;;;11.20;99.90;;;;;;5045258;28;20115;-83
2023/10/21 06:38:42;;;;;;;24.92;13.65;;;9.80;99.90;;;;;;5028475;28;20058;-82
2023/10/21 06:41:07;;;;;;;21.40;13.70;;;10.30;99.90;;;;;;5042021;28;20040;-81
2023/10/21 06:43:33;;;;;;;31.85;15.20;;;8.60;99.90;;;;;;5041097;28;20488;-82
2023/10/21 06:45:59;;;;;;;21.48;13.60;;;11.60;99.90;;;;;;5039960;28;20044;-83
2023/10/21 06:48:26;;;;;;;26.55;14.75;;;9.90;99.90;;;;;;5011648;28;20098;-83
2023/10/21 06:50:53;;;;;;;17.55;12.30;;;10.70;99.90;;;;;;5037054;28;20055;-82
2023/10/21 06:53:18;;;;;;;24.83;13.95;;;10.00;99.90;;;;;;5027531;28;20042;-81
2023/10/21 06:55:44;;;;;;;22.80;14.18;;;11.30;99.90;;;;;;5043380;28;20124;-79
2023/10/21 06:58:13;;;;;;;31.25;15.43;;;10.00;99.90;;;;;;5039884;28;20048;-83
2023/10/21 07:00:40;;;;;;;28.17;13.90;;;10.00;99.90;;;;;;5056424;28;20071;-81
2023/10/21 07:03:06;;;;;;;21.27;12.65;;;11.70;99.90;;;;;;5042443;28;20044;-82
2023/10/21 07:05:34;;;;;;;32.83;16.60;;;10.00;99.90;;;;;;5056638;28;20055;-84
2023/10/21 07:08:02;;;;;;;20.17;12.57;;;10.10;99.90;;;;;;5026819;28;20053;-81
2023/10/21 07:10:29;;;;;;;24.73;14.35;;;10.10;99.90;;;;;;5038234;28;20431;-85
2023/10/21 07:12:56;;;;;;;17.52;13.20;;;10.10;99.90;;;;;;5047414;28;20087;-83
2023/10/21 07:15:28;;;;;;;24.25;12.80;;;10.20;99.90;;;;;;5056224;28;20036;-82
2023/10/21 07:17:54;;;;;;;29.23;16.40;;;10.20;99.90;;;;;;5023667;28;20041;-82
2023/10/21 07:20:22;;;;;;;20.75;12.75;;;10.30;99.90;;;;;;5044545;28;20102;-81
2023/10/21 07:22:49;;;;;;;18.38;13.05;;;10.30;99.90;;;;;;5042327;28;20044;-84
2023/10/21 07:25:18;;;;;;;20.90;12.07;;;11.50;99.90;;;;;;5038506;28;20043;-81
2023/10/21 07:27:47;;;;;;;19.10;13.05;;;10.30;99.90;;;;;;5035654;28;20489;-86
2023/10/21 07:30:14;;;;;;;19.33;12.60;;;10.90;99.90;;;;;;5044425;28;20040;-82
2023/10/21 07:32:40;;;;;;;21.65;13.18;;;10.40;99.90;;;;;;5042336;28;20079;-87
2023/10/21 07:35:07;;;;;;;23.50;13.40;;;10.50;99.90;;;;;;5026582;28;20500;-83
2023/10/21 07:37:33;;;;;;;20.08;13.18;;;10.50;99.90;;;;;;5057774;28;20061;-83
2023/10/21 07:39:59;;;;;;;22.33;14.07;;;10.60;99.90;;;;;;5027625;28;20400;-83
2023/10/21 07:42:26;;;;;;;19.98;13.30;;;11.10;99.90;;;;;;5047145;28;20041;-85
2023/10/21 07:44:52;;;;;;;22.48;14.27;;;10.60;99.90;;;;;;5045672;28;20048;-84
2023/10/21 07:47:18;;;;;;;26.98;16.15;;;12.30;99.90;;;;;;5055899;28;20717;-85
2023/10/21 07:49:46;;;;;;;29.90;16.98;;;10.70;99.90;;;;;;5061951;28;20177;-82
2023/10/21 07:52:13;;;;;;;24.60;15.40;;;10.70;99.90;;;;;;5043420;28;20056;-82
2023/10/21 07:54:39;;;;;;;18.50;13.65;;;12.10;99.90;;;;;;5043575;28;20043;-83
2023/10/21 07:57:15;;;;;;;21.02;13.82;;;10.80;99.90;;;;;;5038183;28;20064;-82
2023/10/21 08:00:04;;;;;;;27.05;14.10;;;10.80;99.90;;;;;;5041865;28;20049;-82
2023/10/21 08:02:30;;;;;;;28.27;16.10;;;10.90;99.90;;;;;;5053784;28;20098;-83
2023/10/21 08:04:56;;;;;;;33.00;17.15;;;10.90;99.90;;;;;;5041906;28;20048;-82
2023/10/21 08:07:22;;;;;;;19.23;13.88;;;10.90;99.90;;;;;;5052146;28;20837;-84
2023/10/21 08:09:49;;;;;;;27.77;14.30;;;11.00;99.90;;;;;;5053398;28;20064;-83
2023/10/21 08:12:14;;;;;;;27.23;15.70;;;11.10;99.90;;;;;;5039257;28;20045;-87
2023/10/21 08:14:40;;;;;;;29.25;16.48;;;11.10;99.90;;;;;;5050370;28;20562;-82
2023/10/21 08:17:07;;;;;;;25.08;15.07;;;12.10;99.90;;;;;;5040512;28;20051;-83
2023/10/21 08:19:34;;;;;;;23.85;13.82;;;11.10;99.90;;;;;;5043208;28;20078;-85
2023/10/21 08:22:10;;;;;;;23.20;13.68;;;12.00;99.90;;;;;;5062764;28;20621;-87
2023/10/21 08:24:36;;;;;;;25.02;16.08;;;11.10;99.90;;;;;;5045230;28;20126;-82
2023/10/21 08:27:04;;;;;;;23.42;15.10;;;11.20;99.90;;;;;;5037466;28;20049;-83
2023/10/21 08:29:30;;;;;;;26.23;15.48;;;11.20;99.90;;;;;;5046689;28;20520;-81
2023/10/21 08:31:56;;;;;;;20.23;14.32;;;12.70;99.90;;;;;;5071703;28;20056;-83
2023/10/21 08:34:22;;;;;;;21.60;13.38;;;11.20;99.90;;;;;;5042391;28;20121;-83
2023/10/21 08:36:48;;;;;;;31.80;16.27;;;12.30;99.90;;;;;;5039415;28;20040;-84
2023/10/21 08:39:15;;;;;;;26.17;15.73;;;11.20;99.90;;;;;;5039949;28;20052;-82
2023/10/21 08:41:44;;;;;;;29.67;14.52;;;12.80;99.90;;;;;;5052329;28;20045;-86
2023/10/21 08:44:12;;;;;;;24.38;14.45;;;11.20;99.90;;;;;;5056703;28;20094;-81
2023/10/21 08:46:37;;;;;;;22.25;13.55;;;11.90;99.90;;;;;;5057685;28;20040;-82
2023/10/21 08:49:06;;;;;;;29.52;14.32;;;11.90;99.90;;;;;;5039616;28;20055;-84
2023/10/21 08:51:33;;;;;;;21.02;13.15;;;11.40;99.90;;;;;;5038429;28;20595;-83
2023/10/21 08:54:04;;;;;;;20.70;13.50;;;11.50;99.90;;;;;;5062943;28;20428;-83
2023/10/21 08:56:34;;;;;;;18.50;12.93;;;12.10;99.90;;;;;;5038536;28;20160;-81
2023/10/21 08:59:01;;;;;;;21.10;13.00;;;12.10;99.90;;;;;;5057264;28;20053;-80
2023/10/21 09:01:27;;;;;;;20.23;13.48;;;11.70;99.90;;;;;;5042038;28;20036;-81
2023/10/21 09:03:58;;;;;;;20.73;13.57;;;11.80;99.90;;;;;;5040709;28;20102;-81
2023/10/21 09:06:26;;;;;;;14.15;10.88;;;11.90;99.90;;;;;;5052797;28;20102;-83
2023/10/21 09:08:54;;;;;;;19.38;11.18;;;12.10;99.90;;;;;;5038646;28;20443;-85
2023/10/21 09:11:23;;;;;;;20.48;11.68;;;12.00;99.90;;;;;;5029466;28;20075;-85
2023/10/21 09:13:52;;;;;;;14.63;10.18;;;12.10;99.90;;;;;;5033477;28;20037;-81
2023/10/21 09:16:25;;;;;;;18.00;9.77;;;12.20;99.90;;;;;;5036100;28;20075;-83
2023/10/21 09:19:01;;;;;;;36.53;28.38;;;12.30;99.90;;;;;;5040033;28;20114;-86
2023/10/21 09:21:43;;;;;;;23.58;11.25;;;12.40;99.90;;;;;;5049938;28;20049;-82
2023/10/21 09:24:23;;;;;;;25.90;10.18;;;12.40;99.90;;;;;;5058095;28;20038;-85
2023/10/21 09:26:50;;;;;;;16.47;9.20;;;12.90;99.90;;;;;;5047136;28;20501;-83
2023/10/21 09:29:19;;;;;;;18.27;9.60;;;12.50;99.90;;;;;;5038518;28;20287;-82
2023/10/21 09:31:49;;;;;;;16.40;8.63;;;13.20;99.90;;;;;;5045748;28;20088;-85
2023/10/21 09:34:27;;;;;;;12.50;7.70;;;12.70;99.90;;;;;;5041947;28;20082;-83
2023/10/21 09:37:04;;;;;;;16.48;8.07;;;12.70;99.90;;;;;;5058650;28;20056;-81
2023/10/21 09:39:36;;;;;;;30.55;23.45;;;12.70;99.90;;;;;;5039027;28;20048;-80
2023/10/21 09:42:08;;;;;;;12.32;7.95;;;12.80;99.90;;;;;;5046489;28;20052;-82
2023/10/21 09:44:38;;;;;;;14.57;7.50;;;12.80;99.90;;;;;;5042854;28;20036;-83
2023/10/21 09:47:08;;;;;;;16.13;7.13;;;12.80;99.90;;;;;;5037347;28;20044;-81
2023/10/21 09:49:40;;;;;;;16.13;8.05;;;12.80;99.90;;;;;;5045037;28;20427;-81
2023/10/21 09:52:10;;;;;;;12.10;6.78;;;14.10;99.90;;;;;;5044095;28;20507;-84
2023/10/21 09:54:42;;;;;;;10.93;6.68;;;12.80;99.90;;;;;;5043020;28;20072;-82
2023/10/21 09:57:12;;;;;;;12.63;6.85;;;12.90;99.90;;;;;;5038450;28;20044;-81
2023/10/21 09:59:39;;;;;;;9.50;5.82;;;14.40;99.90;;;;;;5059783;28;20041;-80
2023/10/21 10:02:06;;;;;;;10.27;6.07;;;11.40;99.90;;;;;;5041813;28;20037;-81
2023/10/21 10:04:35;;;;;;;10.75;5.05;;;13.00;99.90;;;;;;5061586;28;20048;-83
2023/10/21 10:07:06;;;;;;;10.65;5.72;;;13.60;99.90;;;;;;5030272;28;20049;-82
2023/10/21 10:09:36;;;;;;;10.77;5.10;;;13.00;99.90;;;;;;5044334;28;20500;-81
2023/10/21 10:12:08;;;;;;;9.77;4.55;;;13.00;99.90;;;;;;5032865;28;20123;-81
2023/10/21 10:14:34;;;;;;;9.57;3.95;;;13.00;99.90;;;;;;5043993;28;20484;-81
2023/10/21 10:17:06;;;;;;;8.95;4.05;;;13.00;99.90;;;;;;5035690;28;20053;-83
2023/10/21 10:19:38;;;;;;;9.43;3.90;;;13.00;99.90;;;;;;5038156;28;20052;-82
2023/10/21 10:22:18;;;;;;;5.63;3.78;;;13.00;99.90;;;;;;5050812;28;20044;-84
2023/10/21 10:25:04;;;;;;;5.75;3.58;;;13.10;99.90;;;;;;5043328;28;20139;-84
2023/10/21 10:27:40;;;;;;;4.85;3.40;;;13.10;99.90;;;;;;5044494;28;20443;-83
2023/10/21 10:30:21;;;;;;;5.05;3.58;;;13.10;99.90;;;;;;5048611;28;20408;-82
2023/10/21 10:32:51;;;;;;;10.43;4.07;;;13.10;99.90;;;;;;5044085;28;20040;-83
2023/10/21 10:35:40;;;;;;;7.25;3.85;;;13.10;99.90;;;;;;5049624;28;20044;-83
2023/10/21 10:38:17;;;;;;;6.85;2.95;;;13.90;99.90;;;;;;5039334;28;20064;-81
2023/10/21 10:40:44;;;;;;;7.40;3.05;;;14.20;99.90;;;;;;5012345;28;20049;-84
2023/10/21 10:43:10;;;;;;;4.47;2.53;;;14.80;99.90;;;;;;5023935;28;20045;-84
2023/10/21 10:45:37;;;;;;;7.95;3.22;;;13.10;99.90;;;;;;5039343;28;20044;-82
2023/10/21 10:48:03;;;;;;;4.82;3.22;;;13.50;99.90;;;;;;5046656;28;20043;-82
2023/10/21 10:50:42;;;;;;;6.70;2.88;;;13.20;99.90;;;;;;5041000;28;20481;-84
2023/10/21 10:53:12;;;;;;;5.90;3.33;;;13.20;99.90;;;;;;5040553;28;20190;-81
2023/10/21 10:55:49;;;;;;;12.63;8.70;;;14.20;99.90;;;;;;5045130;28;20110;-81
2023/10/21 10:58:18;;;;;;;2.45;1.40;;;13.20;99.90;;;;;;5027520;28;20044;-83
2023/10/21 11:00:49;;;;;;;2.92;0.82;;;13.20;99.90;;;;;;5027342;28;20385;-84
2023/10/21 11:03:26;;;;;;;2.03;1.00;;;13.20;99.90;;;;;;5008365;28;20040;-83
2023/10/21 11:05:55;;;;;;;0.80;0.45;;;12.70;99.90;;;;;;5020468;28;20572;-82
2023/10/21 11:08:23;;;;;;;1.77;0.63;;;13.20;99.90;;;;;;5027408;28;20044;-84
2023/10/21 11:10:53;;;;;;;3.55;1.67;;;13.60;99.90;;;;;;5026670;28;20033;-82
2023/10/21 11:13:21;;;;;;;3.65;1.33;;;13.10;99.90;;;;;;5025456;28;20084;-83
2023/10/21 11:15:51;;;;;;;4.15;0.80;;;13.10;99.90;;;;;;5016441;28;20450;-84
2023/10/21 11:18:18;;;;;;;3.78;0.63;;;14.40;99.90;;;;;;5011195;28;20354;-83
2023/10/21 11:20:51;;;;;;;2.22;0.73;;;13.10;99.90;;;;;;5041074;28;20083;-83
2023/10/21 11:23:21;;;;;;;4.18;1.00;;;13.20;99.90;;;;;;5008932;28;20447;-84
2023/10/21 11:25:52;;;;;;;5.72;0.70;;;13.10;99.90;;;;;;5023358;28;20052;-82
2023/10/21 11:28:19;;;;;;;2.33;0.57;;;13.20;99.90;;;;;;5016708;28;20055;-83
2023/10/21 11:30:46;;;;;;;3.55;0.50;;;13.30;99.90;;;;;;5039899;28;20584;-81
2023/10/21 11:33:12;;;;;;;1.02;0.38;;;13.30;99.90;;;;;;5027866;28;20044;-80
2023/10/21 11:35:44;;;;;;;1.85;0.30;;;14.90;99.90;;;;;;5041220;28;20132;-81
2023/10/21 11:38:12;;;;;;;0.80;0.30;;;13.30;99.90;;;;;;5026607;28;20549;-83
2023/10/21 11:40:38;;;;;;;0.88;0.60;;;13.30;99.90;;;;;;5023012;28;20140;-81
2023/10/21 11:43:08;;;;;;;2.35;0.73;;;13.20;99.90;;;;;;5040823;28;20032;-82
2023/10/21 11:45:34;;;;;;;2.15;0.55;;;13.20;99.90;;;;;;5037737;28;20041;-81
2023/10/21 11:48:09;;;;;;;1.27;0.70;;;13.20;99.90;;;;;;5052993;28;20046;-82
2023/10/21 11:50:45;;;;;;;2.90;0.50;;;12.70;99.90;;;;;;5042392;28;20494;-82
2023/10/21 11:53:12;;;;;;;1.25;0.85;;;13.10;99.90;;;;;;5054358;28;20131;-82
2023/10/21 12:02:44;;;;;;;3.70;0.60;;;13.10;99.90;;;;;;4966233;28;20070;-80
2023/10/21 12:18:22;;;;;;;0.60;0.28;;;13.80;99.90;;;;;;5052246;28;20416;-82
2023/10/21 12:23:48;;;;;;;0.98;0.30;;;13.10;99.90;;;;;;5051519;28;20169;-80
2023/10/21 12:35:01;;;;;;;;;;;13.70;99.90;;;;;;5047008;28;20123;-81
2023/10/21 12:45:45;;;;;;;3.03;0.73;;;13.70;99.90;;;;;;5053699;28;20053;-80
2023/10/21 12:48:18;;;;;;;2.05;0.32;;;14.00;99.90;;;;;;5055720;28;20548;-82
2023/10/21 12:50:51;;;;;;;1.15;0.30;;;13.70;99.90;;;;;;5050436;28;20512;-80
2023/10/21 12:53:17;;;;;;;3.50;0.55;;;13.50;99.90;;;;;;5057726;28;20182;-84
2023/10/21 12:55:46;;;;;;;1.52;0.30;;;14.80;99.90;;;;;;5042334;28;20411;-83
2023/10/21 12:58:14;;;;;;;1.10;0.20;;;13.50;99.90;;;;;;5040411;28;20072;-82
2023/10/21 13:00:43;;;;;;;1.75;0.28;;;13.50;99.90;;;;;;5055025;28;20162;-81
2023/10/21 13:03:12;;;;;;;6.47;0.95;;;13.60;99.90;;;;;;5051697;28;20434;-80
2023/10/21 13:05:38;;;;;;;0.52;0.22;;;14.10;99.90;;;;;;5050968;28;20049;-81
2023/10/21 13:08:08;;;;;;;2.30;0.20;;;13.60;99.90;;;;;;5040628;28;20119;-83
2023/10/21 13:10:34;;;;;;;0.65;0.20;;;13.60;99.90;;;;;;5038113;28;20219;-82
2023/10/21 13:13:03;;;;;;;3.47;0.30;;;15.10;99.90;;;;;;5060494;28;20589;-82
2023/10/21 13:15:32;;;;;;;1.85;0.30;;;14.40;99.90;;;;;;5053593;28;20049;-81
2023/10/21 13:17:58;;;;;;;0.95;0.40;;;13.50;99.90;;;;;;5049202;28;20048;-82